createdAt,value
2018-05-25T00:01:56.608Z,101763.89
2018-05-25T00:06:47.513Z,101751.85
2018-05-25T00:11:39.131Z,101763.76
2018-05-25T00:16:30.806Z,101767.16
2018-05-25T00:21:21.734Z,101762.50
2018-05-25T00:26:12.641Z,101768.24
2018-05-25T00:31:04.283Z,101765.50
2018-05-25T00:35:55.193Z,101765.50
2018-05-25T00:40:46.889Z,101767.29
2018-05-25T00:45:37.754Z,101760.58
2018-05-25T00:50:28.686Z,101757.56
2018-05-25T00:55:38.498Z,101752.20
2018-05-25T01:00:30.133Z,101747.42
2018-05-25T01:05:21.807Z,101759.70
2018-05-25T01:10:12.730Z,101756.56
2018-05-25T01:15:03.622Z,101753.39
2018-05-25T01:19:55.247Z,101759.80
2018-05-25T01:24:46.910Z,101767.72
2018-05-25T01:29:37.807Z,101766.05
2018-05-25T01:34:29.443Z,101774.35
2018-05-25T01:39:21.130Z,101776.91
2018-05-25T01:44:12.010Z,101765.30
2018-05-25T01:49:03.648Z,101765.39
2018-05-25T01:53:55.292Z,101755.82
2018-05-25T01:58:46.954Z,101759.34
2018-05-25T02:03:37.872Z,101760.55
2018-05-25T02:08:28.811Z,101760.91
2018-05-25T02:13:19.847Z,101760.74
2018-05-25T02:18:10.745Z,101763.16
2018-05-25T02:23:02.417Z,101769.69
2018-05-25T02:27:53.321Z,101759.00
2018-05-25T02:32:44.234Z,101758.95
2018-05-25T02:37:35.152Z,101753.98
2018-05-25T02:42:26.049Z,101752.50
2018-05-25T02:47:16.976Z,101755.84
2018-05-25T02:52:07.900Z,101747.42
2018-05-25T02:56:58.851Z,101743.15
2018-05-25T03:01:49.771Z,101744.77
2018-05-25T03:06:40.693Z,101752.63
2018-05-25T03:11:31.591Z,101746.13
2018-05-25T03:16:23.243Z,101748.84
2018-05-25T03:21:14.155Z,101741.41
2018-05-25T03:26:05.093Z,101739.61
2018-05-25T03:30:56.002Z,101744.72
2018-05-25T03:35:46.927Z,101739.64
2018-05-25T03:40:37.842Z,101738.28
2018-05-25T03:45:28.881Z,101741.39
2018-05-25T03:50:21.362Z,101750.11
2018-05-25T03:55:13.088Z,101742.59
2018-05-25T04:01:00.743Z,101752.94
2018-05-25T04:05:53.154Z,101757.97
2018-05-25T04:10:44.099Z,101759.05
2018-05-25T04:15:35.031Z,101746.66
2018-05-25T04:20:25.960Z,101750.45
2018-05-25T04:25:16.881Z,101756.20
2018-05-25T04:30:07.912Z,101752.02
2018-05-25T04:34:58.792Z,101760.20
2018-05-25T04:39:49.691Z,101757.59
2018-05-25T04:44:40.611Z,101760.13
2018-05-25T04:49:32.237Z,101762.03
2018-05-25T04:54:23.933Z,101756.58
2018-05-25T04:59:14.936Z,101754.36
2018-05-25T05:04:05.814Z,101749.48
2018-05-25T05:08:57.478Z,101746.47
2018-05-25T05:13:48.353Z,101747.73
2018-05-25T05:18:40.789Z,101747.38
2018-05-25T05:23:31.676Z,101752.55
2018-05-25T05:28:23.423Z,101747.55
2018-05-25T05:33:14.374Z,101755.31
2018-05-25T05:38:05.210Z,101756.13
2018-05-25T05:42:56.873Z,101755.87
2018-05-25T05:47:47.794Z,101755.89
2018-05-25T05:52:39.448Z,101756.71
2018-05-25T05:57:31.111Z,101759.15
2018-05-25T06:02:22.031Z,101759.19
2018-05-25T06:07:13.105Z,101756.02
2018-05-25T06:12:04.767Z,101749.78
2018-05-25T06:16:56.456Z,101748.67
2018-05-25T06:21:47.353Z,101752.96
2018-05-25T06:26:38.244Z,101742.73
2018-05-25T06:31:29.139Z,101745.73
2018-05-25T06:36:21.540Z,101744.35
2018-05-25T06:41:12.435Z,101745.47
2018-05-25T06:46:04.104Z,101742.16
2018-05-25T06:50:54.983Z,101735.86
2018-05-25T06:55:46.647Z,101735.02
2018-05-25T07:00:38.414Z,101732.30
2018-05-25T07:05:30.075Z,101728.21
2018-05-25T07:10:20.944Z,101726.41
2018-05-25T07:15:11.861Z,101730.59
2018-05-25T07:20:02.768Z,101726.88
2018-05-25T07:24:54.455Z,101726.92
2018-05-25T07:29:46.161Z,101722.13
2018-05-25T07:34:37.817Z,101722.27
2018-05-25T07:39:29.437Z,101722.28
2018-05-25T07:44:21.119Z,101728.44
2018-05-25T07:49:13.506Z,101731.87
2018-05-25T07:54:05.167Z,101730.33
2018-05-25T07:58:56.826Z,101732.59
2018-05-25T08:03:48.561Z,101738.20
2018-05-25T08:08:39.452Z,101738.69
2018-05-25T08:13:30.362Z,101735.87
2018-05-25T08:18:22.075Z,101733.09
2018-05-25T08:23:14.466Z,101731.89
2018-05-25T08:28:06.851Z,101734.50
2018-05-25T08:32:58.815Z,101729.73
2018-05-25T08:37:49.735Z,101727.80
2018-05-25T08:42:41.403Z,101736.91
2018-05-25T08:47:33.778Z,101724.83
2018-05-25T08:52:25.434Z,101720.69
2018-05-25T08:57:17.048Z,101718.00
2018-05-25T09:02:09.461Z,101718.66
2018-05-25T09:07:00.357Z,101720.06
2018-05-25T09:11:52.057Z,101727.63
2018-05-25T09:16:43.694Z,101723.34
2018-05-25T09:21:34.597Z,101715.88
2018-05-25T09:26:25.640Z,101718.84
2018-05-25T09:31:16.526Z,101712.80
2018-05-25T09:36:07.473Z,101708.88
2018-05-25T09:40:59.212Z,101710.05
2018-05-25T09:45:50.854Z,101706.77
2018-05-25T09:50:41.983Z,101704.52
2018-05-25T09:55:33.758Z,101692.31
2018-05-25T10:00:24.674Z,101700.67
2018-05-25T10:05:15.685Z,101692.88
2018-05-25T10:10:06.635Z,101690.42
2018-05-25T10:14:59.012Z,101684.29
2018-05-25T10:19:50.784Z,101690.87
2018-05-25T10:24:42.443Z,101679.64
2018-05-25T10:29:34.163Z,101675.92
2018-05-25T10:34:25.068Z,101684.81
2018-05-25T10:39:16.043Z,101683.68
2018-05-25T10:44:07.032Z,101679.88
2018-05-25T10:48:58.006Z,101671.97
2018-05-25T10:53:49.675Z,101667.80
2018-05-25T10:58:40.591Z,101662.52
2018-05-25T11:03:31.496Z,101667.98
2018-05-25T11:08:23.131Z,101661.70
2018-05-25T11:13:14.789Z,101651.66
2018-05-25T11:18:06.486Z,101647.61
2018-05-25T11:22:58.861Z,101650.64
2018-05-25T11:27:51.241Z,101648.03
2018-05-25T11:32:42.885Z,101644.39
2018-05-25T11:37:34.702Z,101639.39
2018-05-25T11:42:26.401Z,101634.90
2018-05-25T11:47:18.798Z,101638.26
2018-05-25T11:52:09.842Z,101628.30
2018-05-25T11:57:00.762Z,101637.34
2018-05-25T12:01:52.033Z,101629.38
2018-05-25T12:06:42.867Z,101627.92
2018-05-25T12:11:34.533Z,101616.59
2018-05-25T12:16:25.454Z,101606.80
2018-05-25T12:21:17.854Z,101610.05
2018-05-25T12:26:08.757Z,101607.45
2018-05-25T12:30:59.686Z,101605.66
2018-05-25T12:35:50.584Z,101603.36
2018-05-25T12:40:41.493Z,101594.37
2018-05-25T12:45:32.394Z,101588.25
2018-05-25T12:50:24.083Z,101576.97
2018-05-25T12:55:14.979Z,101577.73
2018-05-25T13:00:05.891Z,101559.11
2018-05-25T13:04:56.809Z,101570.78
2018-05-25T13:09:47.797Z,101571.33
2018-05-25T13:14:38.682Z,101566.98
2018-05-25T13:19:29.645Z,101566.00
2018-05-25T13:24:22.089Z,101561.31
2018-05-25T13:29:13.722Z,101553.28
2018-05-25T13:34:05.395Z,101557.80
2018-05-25T13:38:57.766Z,101555.65
2018-05-25T13:43:49.393Z,101552.27
2018-05-25T13:48:40.293Z,101558.83
2018-05-25T13:53:31.192Z,101564.86
2018-05-25T13:58:22.925Z,101553.09
2018-05-25T14:03:13.837Z,101551.94
2018-05-25T14:08:05.497Z,101546.44
2018-05-25T14:12:56.385Z,101548.14
2018-05-25T14:17:48.048Z,101549.03
2018-05-25T14:22:40.436Z,101537.66
2018-05-25T14:27:31.426Z,101535.98
2018-05-25T14:32:22.302Z,101530.48
2018-05-25T14:37:13.298Z,101533.36
2018-05-25T14:42:04.162Z,101533.98
2018-05-25T14:46:55.819Z,101531.52
2018-05-25T14:51:46.744Z,101533.08
2018-05-25T14:56:37.643Z,101527.67
2018-05-25T15:01:29.299Z,101523.33
2018-05-25T15:06:20.949Z,101525.28
2018-05-25T15:11:12.600Z,101519.24
2018-05-25T15:16:04.242Z,101522.18
2018-05-25T15:20:55.129Z,101517.05
2018-05-25T15:25:46.762Z,101510.86
2018-05-25T15:30:38.490Z,101514.95
2018-05-25T15:35:30.173Z,101512.73
2018-05-25T15:40:21.093Z,101504.77
2018-05-25T15:45:12.009Z,101510.73
2018-05-25T15:50:02.882Z,101504.06
2018-05-25T15:54:56.588Z,101505.36
2018-05-25T15:59:47.564Z,101504.22
2018-05-25T16:04:38.483Z,101504.19
2018-05-25T16:09:30.116Z,101503.55
2018-05-25T16:14:21.019Z,101506.61
2018-05-25T16:19:12.644Z,101503.92
2018-05-25T16:24:03.582Z,101506.30
2018-05-25T16:28:54.537Z,101503.64
2018-05-25T16:33:45.402Z,101497.78
2018-05-25T16:38:36.329Z,101493.91
2018-05-25T16:43:27.224Z,101497.91
2018-05-25T16:48:18.887Z,101502.88
2018-05-25T16:53:09.787Z,101502.06
2018-05-25T16:58:00.745Z,101508.02
2018-05-25T17:02:51.664Z,101508.13
2018-05-25T17:07:42.584Z,101512.29
2018-05-25T17:12:34.316Z,101512.59
2018-05-25T17:17:26.606Z,101525.71
2018-05-25T17:22:18.973Z,101539.14
2018-05-25T17:27:11.373Z,101534.32
2018-05-25T17:32:02.989Z,101542.55
2018-05-25T17:36:54.647Z,101543.82
2018-05-25T17:41:45.577Z,101548.37
2018-05-25T17:46:37.254Z,101557.84
2018-05-25T17:51:28.175Z,101557.44
2018-05-25T17:56:20.572Z,101555.98
2018-05-25T18:01:11.498Z,101562.36
2018-05-25T18:06:02.484Z,101567.44
2018-05-25T18:10:53.425Z,101572.92
2018-05-25T18:15:44.379Z,101581.30
2018-05-25T18:20:35.299Z,101591.75
2018-05-25T18:25:26.187Z,101592.05
2018-05-25T18:30:17.829Z,101596.09
2018-05-25T18:35:10.198Z,101602.17
2018-05-25T18:40:01.888Z,101601.52
2018-05-25T18:44:54.268Z,101610.89
2018-05-25T18:49:45.900Z,101626.70
2018-05-25T18:54:37.549Z,101631.13
2018-05-25T18:59:29.186Z,101636.75
2018-05-25T19:04:20.840Z,101634.67
2018-05-25T19:09:12.479Z,101639.02
2018-05-25T19:14:03.397Z,101648.09
2018-05-25T19:18:54.326Z,101646.17
2018-05-25T19:23:45.946Z,101653.96
2018-05-25T19:28:37.648Z,101647.63
2018-05-25T19:33:30.031Z,101651.02
2018-05-25T19:38:21.724Z,101653.63
2018-05-25T19:43:13.350Z,101665.83
2018-05-25T19:48:04.274Z,101663.22
2018-05-25T19:52:55.216Z,101675.56
2018-05-25T19:57:46.085Z,101674.30
2018-05-25T20:02:37.758Z,101677.23
2018-05-25T20:07:29.396Z,101672.15
2018-05-25T20:12:21.058Z,101674.78
2018-05-25T20:17:12.021Z,101674.66
2018-05-25T20:22:03.654Z,101672.75
2018-05-25T20:26:56.051Z,101676.20
2018-05-25T20:31:47.688Z,101672.55
2018-05-25T20:36:38.575Z,101676.75
2018-05-25T20:41:30.240Z,101674.17
2018-05-25T20:46:21.907Z,101671.69
2018-05-25T20:51:14.273Z,101681.85
2018-05-25T20:56:05.179Z,101683.30
2018-05-25T21:00:56.079Z,101685.73
2018-05-25T21:05:46.983Z,101685.16
2018-05-25T21:10:37.900Z,101692.20
2018-05-25T21:15:28.801Z,101696.89
2018-05-25T21:20:20.423Z,101700.94
2018-05-25T21:25:12.441Z,101708.52
2018-05-25T21:30:03.393Z,101709.78
2018-05-25T21:34:54.255Z,101714.23
2018-05-25T21:39:45.187Z,101715.53
2018-05-25T21:44:36.851Z,101712.40
2018-05-25T21:49:27.757Z,101714.36
2018-05-25T21:54:20.141Z,101717.23
2018-05-25T21:59:11.793Z,101710.02
2018-05-25T22:04:03.412Z,101713.46
2018-05-25T22:08:55.035Z,101718.12
2018-05-25T22:13:45.943Z,101718.72
2018-05-25T22:18:36.830Z,101722.47
2018-05-25T22:23:27.724Z,101725.08
2018-05-25T22:28:19.403Z,101731.69
2018-05-25T22:33:10.312Z,101722.13
2018-05-25T22:38:02.089Z,101719.92
2018-05-25T22:43:51.374Z,101722.83
2018-05-25T22:49:39.116Z,101719.16
2018-05-25T22:54:42.217Z,101719.84
2018-05-25T22:59:33.131Z,101722.47
2018-05-25T23:04:24.029Z,101719.45
2018-05-25T23:09:14.921Z,101719.30
2018-05-25T23:14:06.605Z,101718.73
2018-05-25T23:18:58.226Z,101721.60
2018-05-25T23:23:49.132Z,101723.95
2018-05-25T23:28:40.784Z,101721.46
2018-05-25T23:33:31.668Z,101711.87
2018-05-25T23:38:24.047Z,101719.40
2018-05-25T23:43:15.675Z,101717.08
2018-05-25T23:48:07.347Z,101711.58
2018-05-25T23:52:58.266Z,101717.86
2018-05-25T23:57:49.140Z,101718.66
